createdAt,value
2023-04-25T00:01:56.048Z,100.00
2023-04-25T00:04:30.830Z,98.85
2023-04-25T00:07:04.174Z,99.55
2023-04-25T00:09:37.246Z,100.00
2023-04-25T00:12:10.761Z,100.00
2023-04-25T00:14:46.584Z,100.00
2023-04-25T00:17:20.309Z,100.00
2023-04-25T00:19:53.567Z,95.58
2023-04-25T00:22:26.444Z,99.54
2023-04-25T00:25:01.202Z,100.00
2023-04-25T00:27:34.406Z,96.75
2023-04-25T00:30:09.697Z,94.86
2023-04-25T00:32:42.672Z,91.24
2023-04-25T00:35:15.899Z,89.59
2023-04-25T00:37:48.853Z,92.01
2023-04-25T00:40:21.918Z,93.24
2023-04-25T00:42:55.360Z,94.41
2023-04-25T00:45:31.402Z,97.35
2023-04-25T00:48:05.315Z,100.00
2023-04-25T00:50:38.613Z,100.00
2023-04-25T00:53:11.915Z,98.19
2023-04-25T00:55:45.350Z,98.80
2023-04-25T00:58:18.589Z,99.01
2023-04-25T01:00:54.062Z,97.75
2023-04-25T01:03:29.790Z,95.13
2023-04-25T01:06:03.653Z,99.65
2023-04-25T01:08:37.450Z,100.00
2023-04-25T01:11:11.022Z,100.00
2023-04-25T01:13:44.088Z,95.80
2023-04-25T01:16:18.434Z,95.55
2023-04-25T01:18:52.353Z,99.78
2023-04-25T01:21:29.172Z,100.00
2023-04-25T01:24:02.561Z,100.00
2023-04-25T01:26:36.075Z,100.00
2023-04-25T01:29:09.784Z,99.48
2023-04-25T01:31:43.086Z,100.00
2023-04-25T01:34:16.097Z,100.00
2023-04-25T01:36:51.149Z,99.87
2023-04-25T01:39:24.248Z,96.29
2023-04-25T01:41:57.653Z,95.60
2023-04-25T01:44:30.896Z,97.66
2023-04-25T01:47:04.213Z,99.98
2023-04-25T01:49:37.153Z,99.95
2023-04-25T01:52:11.579Z,100.00
2023-04-25T01:54:45.837Z,98.53
2023-04-25T01:57:18.734Z,98.93
2023-04-25T01:59:52.239Z,96.52
2023-04-25T02:02:25.281Z,97.30
2023-04-25T02:04:58.194Z,100.00
2023-04-25T02:07:32.683Z,99.33
2023-04-25T02:10:06.569Z,99.12
2023-04-25T02:12:39.358Z,98.62
2023-04-25T02:15:12.821Z,97.88
2023-04-25T02:17:46.281Z,98.19
2023-04-25T02:20:19.232Z,96.82
2023-04-25T02:22:53.781Z,93.41
2023-04-25T02:25:27.046Z,92.87
2023-04-25T02:28:00.005Z,92.13
2023-04-25T02:30:32.953Z,92.54
2023-04-25T02:33:06.012Z,91.01
2023-04-25T02:35:39.023Z,89.57
2023-04-25T02:38:13.549Z,90.56
2023-04-25T02:40:46.742Z,88.74
2023-04-25T02:43:19.568Z,87.15
2023-04-25T02:45:52.396Z,86.18
2023-04-25T02:48:25.387Z,87.63
2023-04-25T02:50:58.380Z,85.55
2023-04-25T02:53:32.639Z,85.70
2023-04-25T02:56:06.294Z,85.28
2023-04-25T02:58:39.099Z,84.53
2023-04-25T03:01:12.176Z,84.14
2023-04-25T03:03:44.982Z,85.60
2023-04-25T03:06:17.874Z,83.67
2023-04-25T03:08:52.076Z,83.95
2023-04-25T03:11:27.192Z,83.82
2023-04-25T03:14:00.175Z,85.98
2023-04-25T03:16:33.147Z,84.85
2023-04-25T03:19:06.075Z,87.66
2023-04-25T03:21:39.480Z,85.91
2023-04-25T03:24:13.958Z,85.32
2023-04-25T03:26:46.986Z,86.23
2023-04-25T03:29:19.700Z,87.25
2023-04-25T03:31:52.668Z,87.08
2023-04-25T03:34:27.038Z,89.62
2023-04-25T03:36:59.923Z,90.31
2023-04-25T03:39:34.425Z,88.22
2023-04-25T03:42:07.500Z,87.92
2023-04-25T03:44:41.006Z,89.30
2023-04-25T03:47:13.776Z,89.05
2023-04-25T03:49:46.552Z,90.25
2023-04-25T03:52:19.455Z,89.94
2023-04-25T03:54:53.890Z,91.17
2023-04-25T03:57:27.215Z,91.06
2023-04-25T03:59:59.994Z,89.54
2023-04-25T04:02:34.263Z,89.79
2023-04-25T04:05:08.186Z,88.21
2023-04-25T04:07:43.599Z,87.85
2023-04-25T04:10:18.176Z,88.45
2023-04-25T04:12:51.142Z,87.37
2023-04-25T04:15:24.276Z,89.65
2023-04-25T04:17:57.202Z,89.09
2023-04-25T04:20:30.662Z,89.50
2023-04-25T04:23:04.216Z,89.01
2023-04-25T04:25:39.102Z,89.65
2023-04-25T04:28:12.242Z,87.87
2023-04-25T04:30:48.117Z,89.50
2023-04-25T04:33:21.107Z,89.51
2023-04-25T04:35:54.697Z,89.33
2023-04-25T04:38:27.745Z,88.99
2023-04-25T04:41:02.219Z,89.94
2023-04-25T04:43:35.190Z,90.58
2023-04-25T04:46:08.548Z,90.82
2023-04-25T04:48:41.628Z,90.70
2023-04-25T04:51:14.721Z,89.99
2023-04-25T04:53:47.825Z,88.70
2023-04-25T04:56:24.696Z,88.47
2023-04-25T04:58:58.163Z,88.97
2023-04-25T05:01:31.343Z,89.58
2023-04-25T05:04:04.976Z,89.90
2023-04-25T05:06:38.113Z,91.80
2023-04-25T05:09:11.567Z,91.09
2023-04-25T05:11:46.100Z,93.14
2023-04-25T05:14:19.140Z,95.55
2023-04-25T05:16:55.109Z,97.17
2023-04-25T05:19:28.096Z,97.73
2023-04-25T05:22:00.969Z,100.00
2023-04-25T05:24:34.200Z,98.15
2023-04-25T05:27:08.815Z,100.00
2023-04-25T05:29:41.697Z,100.00
2023-04-25T05:32:14.832Z,100.00
2023-04-25T05:34:48.222Z,100.00
2023-04-25T05:37:21.399Z,98.91
2023-04-25T05:39:54.693Z,97.50
2023-04-25T05:42:29.266Z,98.83
2023-04-25T05:45:02.063Z,98.66
2023-04-25T05:47:35.420Z,98.10
2023-04-25T05:50:09.697Z,96.81
2023-04-25T05:52:42.621Z,96.61
2023-04-25T05:55:16.677Z,94.51
2023-04-25T05:57:51.570Z,91.91
2023-04-25T06:00:25.021Z,91.57
2023-04-25T06:02:58.046Z,87.56
2023-04-25T06:05:31.499Z,88.06
2023-04-25T06:08:04.621Z,87.52
2023-04-25T06:10:38.281Z,87.62
2023-04-25T06:13:13.105Z,85.86
2023-04-25T06:15:46.178Z,87.47
2023-04-25T06:18:19.201Z,86.57
2023-04-25T06:20:52.081Z,86.31
2023-04-25T06:23:24.958Z,85.95
2023-04-25T06:25:58.102Z,85.66
2023-04-25T06:28:32.861Z,85.37
2023-04-25T06:31:05.984Z,84.89
2023-04-25T06:33:38.900Z,86.05
2023-04-25T06:36:11.835Z,84.98
2023-04-25T06:38:44.869Z,86.48
2023-04-25T06:41:18.156Z,85.51
2023-04-25T06:43:52.845Z,84.14
2023-04-25T06:46:26.098Z,83.29
2023-04-25T06:48:59.404Z,84.03
2023-04-25T06:51:32.504Z,81.96
2023-04-25T06:54:06.575Z,80.97
2023-04-25T06:56:39.847Z,79.97
2023-04-25T06:59:14.407Z,79.20
2023-04-25T07:01:47.867Z,78.22
2023-04-25T07:04:21.843Z,78.89
2023-04-25T07:06:55.916Z,81.07
2023-04-25T07:09:29.000Z,78.67
2023-04-25T07:12:02.645Z,78.74
2023-04-25T07:14:36.890Z,80.49
2023-04-25T07:17:09.963Z,79.06
2023-04-25T07:19:43.242Z,78.83
2023-04-25T07:22:16.348Z,78.45
2023-04-25T07:24:49.951Z,78.51
2023-04-25T07:27:23.137Z,78.36
2023-04-25T07:29:58.376Z,79.87
2023-04-25T07:32:31.641Z,79.45
2023-04-25T07:35:04.676Z,79.95
2023-04-25T07:37:37.633Z,79.46
2023-04-25T07:40:11.368Z,82.17
2023-04-25T07:42:44.606Z,81.28
2023-04-25T07:45:19.059Z,79.96
2023-04-25T07:47:52.288Z,79.59
2023-04-25T07:50:25.489Z,79.67
2023-04-25T07:52:58.519Z,80.90
2023-04-25T07:55:31.403Z,81.06
2023-04-25T07:58:05.626Z,79.34
2023-04-25T08:00:40.096Z,78.21
2023-04-25T08:03:13.611Z,78.13
2023-04-25T08:05:47.082Z,77.63
2023-04-25T08:08:20.270Z,77.24
2023-04-25T08:10:53.250Z,78.58
2023-04-25T08:13:26.438Z,78.84
2023-04-25T08:16:01.060Z,77.51
2023-04-25T08:18:33.935Z,75.75
2023-04-25T08:21:07.826Z,75.77
2023-04-25T08:23:40.646Z,74.57
2023-04-25T08:26:13.607Z,74.22
2023-04-25T08:28:46.688Z,73.85
2023-04-25T08:31:21.736Z,73.14
2023-04-25T08:33:54.662Z,73.39
2023-04-25T08:36:38.433Z,73.87
2023-04-25T08:39:12.674Z,73.61
2023-04-25T08:41:46.654Z,73.35
2023-04-25T08:44:19.532Z,72.53
2023-04-25T08:46:55.708Z,70.95
2023-04-25T08:49:28.660Z,70.73
2023-04-25T08:52:02.517Z,69.86
2023-04-25T08:54:38.341Z,70.15
2023-04-25T08:57:13.560Z,68.80
2023-04-25T08:59:47.719Z,69.26
2023-04-25T09:02:22.487Z,67.98
2023-04-25T09:04:57.210Z,67.41
2023-04-25T09:07:30.416Z,66.64
2023-04-25T09:10:04.529Z,67.28
2023-04-25T09:12:37.934Z,66.88
2023-04-25T09:15:12.344Z,66.78
2023-04-25T09:17:46.577Z,66.23
2023-04-25T09:20:21.975Z,67.42
2023-04-25T09:23:03.420Z,67.85
2023-04-25T09:25:37.756Z,66.44
2023-04-25T09:28:11.049Z,67.35
2023-04-25T09:30:44.353Z,68.27
2023-04-25T09:33:19.031Z,66.21
2023-04-25T09:35:56.258Z,67.29
2023-04-25T09:38:29.117Z,66.95
2023-04-25T09:41:03.243Z,67.90
2023-04-25T09:43:36.534Z,67.98
2023-04-25T09:46:10.881Z,67.88
2023-04-25T09:48:49.977Z,67.34
2023-04-25T09:51:27.859Z,66.52
2023-04-25T09:54:00.932Z,66.13
2023-04-25T09:56:37.997Z,64.34
2023-04-25T09:59:11.374Z,65.17
2023-04-25T10:01:45.607Z,65.50
2023-04-25T10:04:21.421Z,66.78
2023-04-25T10:06:55.857Z,64.89
2023-04-25T10:09:32.884Z,64.11
2023-04-25T10:12:06.127Z,64.14
2023-04-25T10:14:39.144Z,69.62
2023-04-25T10:17:13.555Z,75.04
2023-04-25T10:19:48.444Z,80.49
2023-04-25T10:22:25.564Z,83.86
2023-04-25T10:24:59.096Z,86.42
2023-04-25T10:27:32.175Z,83.77
2023-04-25T10:30:07.047Z,85.71
2023-04-25T10:32:40.139Z,89.10
2023-04-25T10:35:16.478Z,94.91
2023-04-25T10:37:59.936Z,95.38
2023-04-25T10:40:33.418Z,93.55
2023-04-25T10:43:25.113Z,95.28
2023-04-25T10:45:57.941Z,96.99
2023-04-25T10:48:32.506Z,98.58
2023-04-25T10:51:13.651Z,99.82
2023-04-25T10:53:47.157Z,99.94
2023-04-25T10:56:21.194Z,93.88
2023-04-25T10:58:54.288Z,95.56
2023-04-25T11:01:27.475Z,96.66
2023-04-25T11:04:00.700Z,98.16
2023-04-25T11:06:39.379Z,99.58
2023-04-25T11:09:14.597Z,98.20
2023-04-25T11:11:55.954Z,99.76
2023-04-25T11:14:29.112Z,100.00
2023-04-25T11:17:02.517Z,100.00
2023-04-25T11:19:36.010Z,100.00
2023-04-25T11:22:12.310Z,100.00
2023-04-25T11:24:45.210Z,99.67
2023-04-25T11:27:18.329Z,100.00
2023-04-25T11:29:51.135Z,100.00
2023-04-25T11:32:27.642Z,100.00
2023-04-25T11:35:01.158Z,100.00
2023-04-25T11:37:36.069Z,95.20
2023-04-25T11:40:10.661Z,94.67
2023-04-25T11:42:55.219Z,94.47
2023-04-25T11:45:28.683Z,95.56
2023-04-25T11:48:03.489Z,94.75
2023-04-25T11:50:36.694Z,89.35
2023-04-25T11:53:09.905Z,87.79
2023-04-25T11:55:42.993Z,85.39
2023-04-25T11:58:20.677Z,81.37
2023-04-25T12:00:53.594Z,79.17
2023-04-25T12:03:32.435Z,75.21
2023-04-25T12:06:06.500Z,75.65
2023-04-25T12:08:39.818Z,78.04
2023-04-25T12:11:22.793Z,77.58
2023-04-25T12:13:57.269Z,76.93
2023-04-25T12:16:30.162Z,76.47
2023-04-25T12:19:04.840Z,75.04
2023-04-25T12:21:46.974Z,71.09
2023-04-25T12:24:29.894Z,69.78
2023-04-25T12:27:04.317Z,70.29
2023-04-25T12:29:49.096Z,67.50
2023-04-25T12:32:22.876Z,69.05
2023-04-25T12:34:55.850Z,68.78
2023-04-25T12:37:31.099Z,69.84
2023-04-25T12:40:05.388Z,67.51
2023-04-25T12:42:38.224Z,70.04
2023-04-25T12:45:12.613Z,74.19
2023-04-25T12:47:45.476Z,73.33
2023-04-25T12:50:18.676Z,72.57
2023-04-25T12:52:51.678Z,73.32
2023-04-25T12:55:25.108Z,74.39
2023-04-25T12:57:58.070Z,69.40
2023-04-25T13:00:32.836Z,69.17
2023-04-25T13:03:05.990Z,67.86
2023-04-25T13:05:39.333Z,68.57
2023-04-25T13:08:12.526Z,66.55
2023-04-25T13:10:46.346Z,64.98
2023-04-25T13:13:19.531Z,69.36
2023-04-25T13:15:53.710Z,70.01
2023-04-25T13:18:27.498Z,65.61
2023-04-25T13:21:01.802Z,68.03
2023-04-25T13:23:34.869Z,65.44
2023-04-25T13:26:07.951Z,68.49
2023-04-25T13:28:42.940Z,69.36
2023-04-25T13:31:20.118Z,70.22
2023-04-25T13:33:53.256Z,72.04
2023-04-25T13:36:27.042Z,71.67
2023-04-25T13:39:00.099Z,73.51
2023-04-25T13:41:33.532Z,68.81
2023-04-25T13:44:06.601Z,69.46
2023-04-25T13:46:47.150Z,68.73
2023-04-25T13:49:21.109Z,70.77
2023-04-25T13:51:54.581Z,71.19
2023-04-25T13:54:27.793Z,71.97
2023-04-25T13:57:01.124Z,72.61
2023-04-25T13:59:34.164Z,74.63
2023-04-25T14:02:08.866Z,74.61
2023-04-25T14:04:42.980Z,75.12
2023-04-25T14:07:17.322Z,74.61
2023-04-25T14:09:50.597Z,76.49
2023-04-25T14:12:23.829Z,76.87
2023-04-25T14:14:57.126Z,77.61
2023-04-25T14:17:31.609Z,77.46
2023-04-25T14:20:06.880Z,78.72
2023-04-25T14:22:44.036Z,78.96
2023-04-25T14:25:16.918Z,80.03
2023-04-25T14:27:51.117Z,80.34
2023-04-25T14:30:24.160Z,82.87
2023-04-25T14:32:58.548Z,85.16
2023-04-25T14:35:31.598Z,87.00
2023-04-25T14:38:04.806Z,85.70
2023-04-25T14:40:38.672Z,85.35
2023-04-25T14:43:11.637Z,85.70
2023-04-25T14:45:44.516Z,89.85
2023-04-25T14:48:20.666Z,93.01
2023-04-25T14:50:53.981Z,93.22
2023-04-25T14:53:27.874Z,91.70
2023-04-25T14:56:00.860Z,89.51
2023-04-25T14:58:36.158Z,87.11
2023-04-25T15:01:09.419Z,87.66
2023-04-25T15:03:44.073Z,87.59
2023-04-25T15:06:17.595Z,86.28
2023-04-25T15:08:50.651Z,86.03
2023-04-25T15:11:23.526Z,85.08
2023-04-25T15:13:56.575Z,83.86
2023-04-25T15:16:29.780Z,84.35
2023-04-25T15:19:05.033Z,83.39
2023-04-25T15:21:38.277Z,85.02
2023-04-25T15:24:12.119Z,86.22
2023-04-25T15:26:46.398Z,87.94
2023-04-25T15:29:19.282Z,89.27
2023-04-25T15:31:52.442Z,91.09
2023-04-25T15:34:26.848Z,97.12
2023-04-25T15:37:00.236Z,97.70
2023-04-25T15:39:33.214Z,100.00
2023-04-25T15:42:06.066Z,100.00
2023-04-25T15:44:39.115Z,100.00
2023-04-25T15:47:12.166Z,100.00
2023-04-25T15:49:47.145Z,100.00
2023-04-25T15:52:21.956Z,100.00
2023-04-25T15:54:54.954Z,100.00
2023-04-25T15:57:27.822Z,100.00
2023-04-25T16:00:00.783Z,100.00
2023-04-25T16:02:33.795Z,100.00
2023-04-25T16:05:09.121Z,100.00
2023-04-25T16:07:43.475Z,100.00
2023-04-25T16:10:19.959Z,100.00
2023-04-25T16:12:52.804Z,100.00
2023-04-25T16:15:26.048Z,100.00
2023-04-25T16:17:59.407Z,100.00
2023-04-25T16:20:34.027Z,100.00
2023-04-25T16:23:07.264Z,100.00
2023-04-25T16:25:41.020Z,100.00
2023-04-25T16:28:14.129Z,100.00
2023-04-25T16:30:47.515Z,100.00
2023-04-25T16:33:20.400Z,100.00
2023-04-25T16:35:54.590Z,100.00
2023-04-25T16:38:28.281Z,100.00
2023-04-25T16:41:01.352Z,100.00
2023-04-25T16:43:34.506Z,100.00
2023-04-25T16:46:07.853Z,100.00
2023-04-25T16:48:40.673Z,100.00
2023-04-25T16:51:15.324Z,100.00
2023-04-25T16:53:48.618Z,100.00
2023-04-25T16:56:21.534Z,100.00
2023-04-25T16:58:54.447Z,100.00
2023-04-25T17:01:27.685Z,100.00
2023-04-25T17:04:01.587Z,100.00
2023-04-25T17:06:36.226Z,100.00
2023-04-25T17:09:10.547Z,100.00
2023-04-25T17:11:43.839Z,100.00
2023-04-25T17:14:16.716Z,100.00
2023-04-25T17:16:49.711Z,100.00
2023-04-25T17:19:23.150Z,100.00
2023-04-25T17:21:57.380Z,100.00
2023-04-25T17:24:30.778Z,100.00
2023-04-25T17:27:03.753Z,100.00
2023-04-25T17:29:36.588Z,100.00
2023-04-25T17:32:09.438Z,100.00
2023-04-25T17:34:43.670Z,100.00
2023-04-25T17:37:18.784Z,100.00
2023-04-25T17:39:52.238Z,100.00
2023-04-25T17:42:25.558Z,100.00
2023-04-25T17:44:58.391Z,100.00
2023-04-25T17:47:32.068Z,100.00
2023-04-25T17:50:05.419Z,100.00
2023-04-25T17:52:39.867Z,100.00
2023-04-25T17:55:13.155Z,100.00
2023-04-25T17:57:46.453Z,100.00
2023-04-25T18:00:19.781Z,100.00
2023-04-25T18:02:52.797Z,100.00
2023-04-25T18:05:25.863Z,100.00
2023-04-25T18:08:00.850Z,100.00
2023-04-25T18:10:35.119Z,100.00
2023-04-25T18:13:09.187Z,100.00
2023-04-25T18:15:42.179Z,100.00
2023-04-25T18:18:20.457Z,100.00
2023-04-25T18:20:53.760Z,100.00
2023-04-25T18:23:28.516Z,100.00
2023-04-25T18:26:03.545Z,100.00
2023-04-25T18:28:36.826Z,100.00
2023-04-25T18:31:11.865Z,100.00
2023-04-25T18:33:44.942Z,100.00
2023-04-25T18:36:33.077Z,100.00
2023-04-25T18:39:19.420Z,100.00
2023-04-25T18:42:03.244Z,100.00
2023-04-25T18:44:40.674Z,100.00
2023-04-25T18:47:14.245Z,100.00
2023-04-25T18:49:48.082Z,100.00
2023-04-25T18:52:21.457Z,100.00
2023-04-25T18:54:55.952Z,100.00
2023-04-25T18:57:29.052Z,100.00
2023-04-25T19:00:05.599Z,100.00
2023-04-25T19:02:38.931Z,100.00
2023-04-25T19:05:12.751Z,100.00
2023-04-25T19:07:47.347Z,100.00
2023-04-25T19:10:21.761Z,100.00
2023-04-25T19:12:55.232Z,100.00
2023-04-25T19:15:28.635Z,100.00
2023-04-25T19:18:02.156Z,100.00
2023-04-25T19:20:35.988Z,100.00
2023-04-25T19:23:10.708Z,100.00
2023-04-25T19:25:45.249Z,100.00
2023-04-25T19:28:18.336Z,100.00
2023-04-25T19:30:52.383Z,100.00
2023-04-25T19:33:25.509Z,100.00
2023-04-25T19:35:58.693Z,100.00
2023-04-25T19:38:31.769Z,100.00
2023-04-25T19:41:06.634Z,100.00
2023-04-25T19:43:39.878Z,100.00
2023-04-25T19:46:13.026Z,100.00
2023-04-25T19:48:46.980Z,100.00
2023-04-25T19:51:21.492Z,100.00
2023-04-25T19:53:54.970Z,100.00
2023-04-25T19:56:29.824Z,100.00
2023-04-25T19:59:03.156Z,100.00
2023-04-25T20:01:36.427Z,100.00
2023-04-25T20:04:09.552Z,100.00
2023-04-25T20:06:43.036Z,100.00
2023-04-25T20:09:16.543Z,100.00
2023-04-25T20:11:51.390Z,100.00
2023-04-25T20:14:24.479Z,100.00
2023-04-25T20:16:57.362Z,100.00
2023-04-25T20:19:30.271Z,100.00
2023-04-25T20:22:03.777Z,100.00
2023-04-25T20:24:36.869Z,100.00
2023-04-25T20:27:11.373Z,100.00
2023-04-25T20:29:44.385Z,100.00
2023-04-25T20:32:17.552Z,100.00
2023-04-25T20:34:50.790Z,100.00
2023-04-25T20:37:23.848Z,100.00
2023-04-25T20:39:56.927Z,100.00
2023-04-25T20:42:32.093Z,100.00
2023-04-25T20:45:07.539Z,100.00
2023-04-25T20:47:40.824Z,100.00
2023-04-25T20:50:13.641Z,100.00
2023-04-25T20:52:46.980Z,100.00
2023-04-25T20:55:20.623Z,100.00
2023-04-25T20:57:55.060Z,100.00
2023-04-25T21:00:29.282Z,100.00
2023-04-25T21:03:03.219Z,100.00
2023-04-25T21:05:36.523Z,100.00
2023-04-25T21:08:09.707Z,100.00
2023-04-25T21:10:42.607Z,100.00
2023-04-25T21:13:17.293Z,100.00
2023-04-25T21:15:50.374Z,100.00
2023-04-25T21:18:23.187Z,100.00
2023-04-25T21:20:56.008Z,100.00
2023-04-25T21:23:29.678Z,100.00
2023-04-25T21:26:02.904Z,100.00
2023-04-25T21:28:37.140Z,100.00
2023-04-25T21:31:11.194Z,100.00
2023-04-25T21:33:44.145Z,100.00
2023-04-25T21:36:17.108Z,100.00
2023-04-25T21:38:50.412Z,100.00
2023-04-25T21:41:23.967Z,100.00
2023-04-25T21:43:58.494Z,100.00
2023-04-25T21:46:31.263Z,100.00
2023-04-25T21:49:04.133Z,100.00
2023-04-25T21:51:37.422Z,100.00
2023-04-25T21:54:10.966Z,100.00
2023-04-25T21:56:44.024Z,100.00
2023-04-25T21:59:18.383Z,100.00
2023-04-25T22:01:51.675Z,100.00
2023-04-25T22:04:24.871Z,100.00
2023-04-25T22:06:58.064Z,100.00
2023-04-25T22:09:34.653Z,100.00
2023-04-25T22:12:11.744Z,100.00
2023-04-25T22:14:46.717Z,100.00
2023-04-25T22:17:19.910Z,100.00
2023-04-25T22:19:53.096Z,100.00
2023-04-25T22:22:26.473Z,100.00
2023-04-25T22:24:59.767Z,100.00
2023-04-25T22:27:33.793Z,100.00
2023-04-25T22:30:09.446Z,100.00
2023-04-25T22:32:42.905Z,100.00
2023-04-25T22:35:16.059Z,100.00
2023-04-25T22:37:49.188Z,100.00
2023-04-25T22:40:22.074Z,100.00
2023-04-25T22:42:55.090Z,100.00
2023-04-25T22:45:29.479Z,100.00
2023-04-25T22:48:02.446Z,100.00
2023-04-25T22:50:35.646Z,100.00
2023-04-25T22:53:10.213Z,100.00
2023-04-25T22:55:44.348Z,100.00
2023-04-25T22:58:17.461Z,100.00
2023-04-25T23:00:52.452Z,100.00
2023-04-25T23:03:25.818Z,100.00
2023-04-25T23:06:00.464Z,100.00
2023-04-25T23:08:33.435Z,100.00
2023-04-25T23:11:06.909Z,100.00
2023-04-25T23:13:40.377Z,100.00
2023-04-25T23:16:14.773Z,100.00
2023-04-25T23:18:47.561Z,100.00
2023-04-25T23:21:21.548Z,100.00
2023-04-25T23:23:54.694Z,100.00
2023-04-25T23:26:28.927Z,100.00
2023-04-25T23:29:02.261Z,100.00
2023-04-25T23:31:36.893Z,100.00
2023-04-25T23:34:09.850Z,100.00
2023-04-25T23:36:42.930Z,100.00
2023-04-25T23:39:18.915Z,100.00
2023-04-25T23:41:51.841Z,100.00
2023-04-25T23:44:24.714Z,100.00
2023-04-25T23:46:58.946Z,100.00
2023-04-25T23:49:33.678Z,100.00
2023-04-25T23:52:06.947Z,100.00
2023-04-25T23:54:39.785Z,100.00
2023-04-25T23:57:13.556Z,100.00
2023-04-25T23:59:46.307Z,100.00
